Terminal Aerodrome Forecast
Issued by NWS

Home | Current Version | Previous Version | Text Only | Print | Product List | Glossary On
Versions: 1 2 3 4 5 6 7 8 9 10 11 12
760
FTUS43 KOAX 251753 AAA
TAFBFF
TAF AMD
KBFF 251753Z 2518/2618 04020G30KT P6SM VCSH BKN015
      TEMPO 2520/2524 5SM -TSRA BKN010CB
     FM260000 34011KT P6SM OVC010
     FM261500 31010KT P6SM SKC=

USA.gov is the U.S. government's official web portal to all federal, state and local government web resources and services.